createdAt,value
2018-09-11T00:02:12.887Z,1.50
2018-09-11T00:04:41.110Z,1.83
2018-09-11T00:07:09.380Z,1.70
2018-09-11T00:09:37.635Z,1.30
2018-09-11T00:12:05.882Z,1.70
2018-09-11T00:14:34.036Z,1.53
2018-09-11T00:17:08.878Z,1.57
2018-09-11T00:19:37.072Z,1.70
2018-09-11T00:22:05.276Z,1.80
2018-09-11T00:24:33.488Z,1.40
2018-09-11T00:27:01.654Z,1.70
2018-09-11T00:29:30.837Z,1.60
2018-09-11T00:31:59.092Z,1.40
2018-09-11T00:34:27.273Z,1.50
2018-09-11T00:36:55.502Z,1.40
2018-09-11T00:39:23.700Z,1.60
2018-09-11T00:41:51.919Z,1.27
2018-09-11T00:44:20.086Z,1.60
2018-09-11T00:46:48.296Z,1.30
2018-09-11T00:49:16.438Z,1.77
2018-09-11T00:51:44.698Z,1.50
2018-09-11T00:54:12.899Z,1.33
2018-09-11T00:56:41.109Z,1.37
2018-09-11T00:59:09.320Z,1.50
2018-09-11T01:01:37.507Z,1.30
2018-09-11T01:04:05.699Z,1.53
2018-09-11T01:06:33.899Z,1.60
2018-09-11T01:09:02.106Z,1.70
2018-09-11T01:11:30.322Z,1.70
2018-09-11T01:13:58.526Z,1.37
2018-09-11T01:16:26.704Z,1.50
2018-09-11T01:18:54.955Z,1.33
2018-09-11T01:21:23.160Z,1.57
2018-09-11T01:23:51.315Z,1.57
2018-09-11T01:26:19.472Z,1.60
2018-09-11T01:28:47.692Z,1.77
2018-09-11T01:31:15.867Z,1.90
2018-09-11T01:33:44.040Z,1.53
2018-09-11T01:36:12.262Z,1.70
2018-09-11T01:38:40.468Z,1.63
2018-09-11T01:41:08.652Z,2.03
2018-09-11T01:43:36.858Z,1.40
2018-09-11T01:46:05.043Z,1.53
2018-09-11T01:48:33.212Z,1.70
2018-09-11T01:51:01.440Z,1.40
2018-09-11T01:53:29.672Z,1.90
2018-09-11T01:55:57.875Z,1.63
2018-09-11T01:58:26.033Z,1.47
2018-09-11T02:00:54.266Z,1.60
2018-09-11T02:03:22.420Z,1.40
2018-09-11T02:05:50.600Z,1.57
2018-09-11T02:08:18.851Z,1.77
2018-09-11T02:10:47.019Z,1.80
2018-09-11T02:13:15.214Z,1.47
2018-09-11T02:15:43.416Z,1.40
2018-09-11T02:18:11.571Z,1.60
2018-09-11T02:20:39.782Z,1.20
2018-09-11T02:23:08.013Z,1.67
2018-09-11T02:25:36.170Z,1.43
2018-09-11T02:28:04.356Z,1.20
2018-09-11T02:31:57.031Z,1.67
2018-09-11T02:34:25.504Z,1.57
2018-09-11T02:36:53.692Z,1.60
2018-09-11T02:39:21.879Z,1.60
2018-09-11T02:41:50.074Z,1.43
2018-09-11T02:44:18.276Z,1.30
2018-09-11T02:46:46.444Z,1.70
2018-09-11T02:49:14.597Z,1.80
2018-09-11T02:51:42.772Z,1.50
2018-09-11T02:54:10.959Z,1.37
2018-09-11T02:56:39.168Z,1.50
2018-09-11T02:59:07.344Z,1.43
2018-09-11T03:01:35.530Z,1.33
2018-09-11T03:04:03.687Z,1.40
2018-09-11T03:06:31.880Z,1.40
2018-09-11T03:09:00.015Z,1.43
2018-09-11T03:11:28.171Z,1.30
2018-09-11T03:13:56.380Z,1.70
2018-09-11T03:16:24.562Z,1.20
2018-09-11T03:18:52.746Z,1.23
2018-09-11T03:21:20.870Z,1.60
2018-09-11T03:23:49.032Z,1.67
2018-09-11T03:26:17.199Z,1.33
2018-09-11T03:28:45.357Z,1.30
2018-09-11T03:31:14.101Z,1.33
2018-09-11T03:33:42.306Z,1.33
2018-09-11T03:36:10.516Z,1.50
2018-09-11T03:38:38.729Z,1.57
2018-09-11T03:41:07.030Z,1.37
2018-09-11T03:43:35.220Z,1.40
2018-09-11T03:46:03.480Z,1.50
2018-09-11T03:48:31.692Z,1.33
2018-09-11T03:51:00.902Z,1.40
2018-09-11T03:53:29.094Z,1.30
2018-09-11T03:55:57.288Z,1.60
2018-09-11T03:58:25.488Z,1.40
2018-09-11T04:00:53.672Z,1.33
2018-09-11T04:03:21.855Z,1.33
2018-09-11T04:05:50.064Z,1.37
2018-09-11T04:08:18.252Z,1.30
2018-09-11T04:10:46.497Z,1.53
2018-09-11T04:13:14.661Z,1.23
2018-09-11T04:15:42.837Z,1.60
2018-09-11T04:18:11.022Z,1.30
2018-09-11T04:20:39.257Z,1.53
2018-09-11T04:23:07.415Z,1.30
2018-09-11T04:25:35.659Z,1.60
2018-09-11T04:28:03.812Z,1.33
2018-09-11T04:30:31.975Z,1.43
2018-09-11T04:33:00.168Z,1.63
2018-09-11T04:35:28.358Z,1.40
2018-09-11T04:37:56.559Z,1.70
2018-09-11T04:40:24.733Z,1.30
2018-09-11T04:42:53.028Z,1.63
2018-09-11T04:45:21.127Z,1.73
2018-09-11T04:47:49.301Z,1.20
2018-09-11T04:50:17.478Z,1.60
2018-09-11T04:52:45.689Z,1.37
2018-09-11T04:55:13.860Z,1.63
2018-09-11T04:57:42.024Z,1.47
2018-09-11T05:00:10.239Z,1.23
2018-09-11T05:02:38.430Z,1.87
2018-09-11T05:05:06.614Z,1.53
2018-09-11T05:07:34.834Z,1.37
2018-09-11T05:10:03.004Z,1.97
2018-09-11T05:12:31.215Z,1.50
2018-09-11T05:14:59.405Z,1.70
2018-09-11T05:17:27.620Z,1.33
2018-09-11T05:19:55.874Z,1.67
2018-09-11T05:22:24.019Z,1.70
2018-09-11T05:24:52.221Z,1.40
2018-09-11T05:27:20.403Z,1.53
2018-09-11T05:29:48.826Z,1.23
2018-09-11T05:32:17.043Z,1.70
2018-09-11T05:34:45.268Z,1.30
2018-09-11T05:37:13.455Z,1.40
2018-09-11T05:39:41.640Z,1.33
2018-09-11T05:42:09.813Z,1.03
2018-09-11T05:44:38.071Z,1.50
2018-09-11T05:47:06.228Z,1.57
2018-09-11T05:49:34.417Z,1.20
2018-09-11T05:52:02.632Z,1.53
2018-09-11T05:54:30.840Z,1.33
2018-09-11T05:56:58.988Z,1.37
2018-09-11T05:59:28.731Z,1.43
2018-09-11T06:01:57.020Z,1.30
2018-09-11T06:04:25.221Z,1.87
2018-09-11T06:06:53.369Z,1.80
2018-09-11T06:09:21.592Z,1.60
2018-09-11T06:11:49.773Z,1.63
2018-09-11T06:14:18.828Z,1.60
2018-09-11T06:16:47.031Z,1.40
2018-09-11T06:19:15.228Z,1.70
2018-09-11T06:21:43.447Z,1.70
2018-09-11T06:24:11.661Z,1.50
2018-09-11T06:26:39.896Z,1.77
2018-09-11T06:29:08.170Z,1.67
2018-09-11T06:31:36.336Z,1.57
2018-09-11T06:34:04.554Z,1.43
2018-09-11T06:36:32.695Z,1.40
2018-09-11T06:39:00.874Z,1.50
2018-09-11T06:41:29.027Z,1.23
2018-09-11T06:43:57.252Z,1.60
2018-09-11T06:46:25.404Z,1.57
2018-09-11T06:48:56.847Z,1.20
2018-09-11T06:51:24.983Z,1.43
2018-09-11T06:53:53.168Z,1.57
2018-09-11T06:56:22.083Z,1.40
2018-09-11T06:58:50.242Z,1.47
2018-09-11T07:01:25.099Z,1.33
2018-09-11T07:03:53.316Z,1.47
2018-09-11T07:06:21.467Z,1.77
2018-09-11T07:08:49.686Z,1.37
2018-09-11T07:11:17.870Z,1.80
2018-09-11T07:13:46.052Z,1.60
2018-09-11T07:16:14.262Z,1.40
2018-09-11T07:18:42.418Z,1.47
2018-09-11T07:21:10.591Z,1.10
2018-09-11T07:23:38.824Z,1.33
2018-09-11T07:26:07.096Z,1.43
2018-09-11T07:28:35.303Z,1.20
2018-09-11T07:31:03.501Z,1.27
2018-09-11T07:33:31.710Z,1.20
2018-09-11T07:35:59.909Z,1.00
2018-09-11T07:38:28.119Z,1.20
2018-09-11T07:40:56.303Z,0.97
2018-09-11T07:43:24.434Z,1.17
2018-09-11T07:45:52.617Z,1.23
2018-09-11T07:48:20.815Z,1.20
2018-09-11T07:50:49.066Z,1.10
2018-09-11T07:53:17.374Z,1.40
2018-09-11T07:55:45.613Z,1.20
2018-09-11T07:58:13.800Z,1.20
2018-09-11T08:00:41.998Z,0.80
2018-09-11T08:03:10.407Z,1.20
2018-09-11T08:05:38.544Z,0.80
2018-09-11T08:08:06.727Z,0.90
2018-09-11T08:10:34.954Z,0.67
2018-09-11T08:13:03.122Z,1.43
2018-09-11T08:15:31.340Z,1.03
2018-09-11T08:17:59.520Z,0.83
2018-09-11T08:20:27.688Z,0.83
2018-09-11T08:22:55.909Z,0.93
2018-09-11T08:25:24.093Z,1.20
2018-09-11T08:27:52.261Z,0.90
2018-09-11T08:30:20.484Z,0.87
2018-09-11T08:32:48.721Z,1.10
2018-09-11T08:35:17.015Z,0.60
2018-09-11T08:37:45.223Z,0.70
2018-09-11T08:40:13.391Z,0.87
2018-09-11T08:42:41.601Z,0.70
2018-09-11T08:45:09.803Z,0.90
2018-09-11T08:47:37.984Z,0.90
2018-09-11T08:50:06.418Z,0.87
2018-09-11T08:52:34.684Z,0.80
2018-09-11T08:55:02.777Z,0.67
2018-09-11T08:57:30.992Z,0.97
2018-09-11T08:59:59.197Z,0.87
2018-09-11T09:02:27.400Z,1.20
2018-09-11T09:04:55.632Z,0.70
2018-09-11T09:07:30.278Z,0.90
2018-09-11T09:09:58.474Z,0.60
2018-09-11T09:12:26.648Z,0.83
2018-09-11T09:14:54.847Z,0.83
2018-09-11T09:17:23.043Z,0.70
2018-09-11T09:19:51.196Z,1.00
2018-09-11T09:22:19.633Z,0.70
2018-09-11T09:24:47.842Z,0.90
2018-09-11T09:27:16.042Z,0.70
2018-09-11T09:29:44.163Z,0.93
2018-09-11T09:32:12.346Z,0.60
2018-09-11T09:34:40.537Z,0.70
2018-09-11T09:37:08.735Z,0.80
2018-09-11T09:39:36.927Z,0.50
2018-09-11T09:42:05.129Z,0.90
2018-09-11T09:44:33.324Z,0.80
2018-09-11T09:47:04.840Z,0.70
2018-09-11T09:49:32.992Z,0.60
2018-09-11T09:52:01.212Z,0.50
2018-09-11T09:54:29.392Z,0.70
2018-09-11T09:56:57.592Z,0.63
2018-09-11T09:59:27.406Z,0.80
2018-09-11T10:02:00.941Z,0.70
2018-09-11T10:04:29.110Z,0.60
2018-09-11T10:06:57.260Z,0.80
2018-09-11T10:09:25.520Z,0.83
2018-09-11T10:11:53.749Z,0.70
2018-09-11T10:14:21.851Z,0.70
2018-09-11T10:16:50.040Z,0.70
2018-09-11T10:19:18.207Z,0.63
2018-09-11T10:21:46.568Z,0.80
2018-09-11T10:24:14.775Z,1.13
2018-09-11T10:26:42.933Z,0.93
2018-09-11T10:29:11.124Z,0.60
2018-09-11T10:31:39.299Z,0.60
2018-09-11T10:34:07.745Z,0.87
2018-09-11T10:36:35.961Z,1.20
2018-09-11T10:39:05.618Z,0.60
2018-09-11T10:41:33.852Z,0.80
2018-09-11T10:44:02.067Z,0.90
2018-09-11T10:46:30.317Z,0.70
2018-09-11T10:48:58.596Z,0.73
2018-09-11T10:51:26.784Z,0.70
2018-09-11T10:53:54.988Z,0.70
2018-09-11T10:56:23.206Z,0.80
2018-09-11T10:58:52.282Z,0.90
2018-09-11T11:01:20.449Z,0.90
2018-09-11T11:03:48.635Z,0.73
2018-09-11T11:06:16.780Z,0.70
2018-09-11T11:08:45.032Z,0.70
2018-09-11T11:11:13.248Z,0.80
2018-09-11T11:13:41.497Z,0.60
2018-09-11T11:16:09.975Z,0.60
2018-09-11T11:18:38.181Z,0.80
2018-09-11T11:21:06.369Z,0.80
2018-09-11T11:23:34.563Z,0.97
2018-09-11T11:26:02.771Z,0.80
2018-09-11T11:28:30.951Z,0.60
2018-09-11T11:30:59.141Z,1.00
2018-09-11T11:33:27.320Z,0.80
2018-09-11T11:35:55.575Z,0.87
2018-09-11T11:38:23.739Z,0.83
2018-09-11T11:40:51.975Z,1.00
2018-09-11T11:43:20.164Z,1.00
2018-09-11T11:45:48.389Z,0.70
2018-09-11T11:48:16.660Z,0.90
2018-09-11T11:50:44.801Z,0.90
2018-09-11T11:53:13.100Z,0.80
2018-09-11T11:55:41.255Z,0.67
2018-09-11T11:58:09.490Z,1.00
2018-09-11T12:00:37.723Z,1.07
2018-09-11T12:03:06.063Z,0.90
2018-09-11T12:05:34.255Z,0.70
2018-09-11T12:08:02.467Z,0.90
2018-09-11T12:10:30.676Z,0.77
2018-09-11T12:12:58.881Z,0.90
2018-09-11T12:15:27.079Z,0.90
2018-09-11T12:17:55.226Z,0.70
2018-09-11T12:20:23.504Z,0.83
2018-09-11T12:22:51.706Z,0.80
2018-09-11T12:25:19.864Z,0.87
2018-09-11T12:27:48.024Z,0.90
2018-09-11T12:30:16.238Z,0.80
2018-09-11T12:32:44.429Z,0.70
2018-09-11T12:35:12.625Z,0.90
2018-09-11T12:37:40.827Z,1.10
2018-09-11T12:40:08.990Z,1.00
2018-09-11T12:42:37.158Z,0.80
2018-09-11T12:45:05.373Z,1.07
2018-09-11T12:47:33.795Z,1.00
2018-09-11T12:50:02.397Z,1.00
2018-09-11T12:52:30.639Z,0.80
2018-09-11T12:54:58.796Z,1.00
2018-09-11T12:57:26.943Z,1.17
2018-09-11T12:59:55.128Z,1.00
2018-09-11T13:02:23.367Z,0.80
2018-09-11T13:04:51.527Z,1.20
2018-09-11T13:07:19.718Z,0.93
2018-09-11T13:09:47.891Z,1.20
2018-09-11T13:12:16.107Z,0.90
2018-09-11T13:14:44.273Z,0.90
2018-09-11T13:17:13.115Z,0.93
2018-09-11T13:19:41.311Z,1.00
2018-09-11T13:22:09.507Z,0.90
2018-09-11T13:24:37.717Z,0.90
2018-09-11T13:27:05.894Z,1.10
2018-09-11T13:29:34.738Z,0.83
2018-09-11T13:32:02.936Z,0.87
2018-09-11T13:34:31.187Z,1.13
2018-09-11T13:36:59.376Z,0.90
2018-09-11T13:39:27.535Z,0.90
2018-09-11T13:41:55.755Z,0.70
2018-09-11T13:44:23.947Z,1.10
2018-09-11T13:46:52.154Z,0.97
2018-09-11T13:49:20.332Z,0.93
2018-09-11T13:51:48.495Z,1.03
2018-09-11T13:54:16.655Z,1.10
2018-09-11T13:56:44.803Z,0.90
2018-09-11T13:59:13.059Z,1.00
2018-09-11T14:01:41.247Z,0.90
2018-09-11T14:04:09.491Z,0.87
2018-09-11T14:06:37.700Z,1.20
2018-09-11T14:09:09.225Z,1.00
2018-09-11T14:11:37.444Z,0.93
2018-09-11T14:14:05.632Z,1.10
2018-09-11T14:16:34.187Z,1.07
2018-09-11T14:19:02.384Z,0.80
2018-09-11T14:21:30.583Z,1.00
2018-09-11T14:23:58.792Z,0.90
2018-09-11T14:26:27.028Z,0.90
2018-09-11T14:28:55.271Z,1.00
2018-09-11T14:31:23.438Z,1.00
2018-09-11T14:33:51.647Z,1.10
2018-09-11T14:36:20.880Z,0.90
2018-09-11T14:38:49.092Z,0.90
2018-09-11T14:41:17.259Z,0.90
2018-09-11T14:43:45.437Z,0.77
2018-09-11T14:46:13.567Z,1.13
2018-09-11T14:48:42.985Z,1.03
2018-09-11T14:51:11.250Z,0.90
2018-09-11T14:53:39.462Z,0.93
2018-09-11T14:56:07.656Z,0.90
2018-09-11T14:58:35.900Z,1.03
2018-09-11T15:01:04.140Z,1.07
2018-09-11T15:03:32.353Z,1.20
2018-09-11T15:06:00.550Z,1.30
2018-09-11T15:08:28.769Z,1.13
2018-09-11T15:10:56.996Z,1.10
2018-09-11T15:13:25.219Z,1.03
2018-09-11T15:15:53.422Z,1.10
2018-09-11T15:18:21.623Z,1.17
2018-09-11T15:20:49.826Z,1.00
2018-09-11T15:23:18.056Z,1.10
2018-09-11T15:25:46.229Z,1.10
2018-09-11T15:28:14.493Z,1.17
2018-09-11T15:30:42.680Z,1.10
2018-09-11T15:33:10.892Z,0.97
2018-09-11T15:35:39.084Z,1.00
2018-09-11T15:38:07.246Z,0.83
2018-09-11T15:40:35.523Z,1.10
2018-09-11T15:43:03.687Z,1.03
2018-09-11T15:45:31.860Z,1.23
2018-09-11T15:48:00.072Z,1.10
2018-09-11T15:50:28.263Z,1.00
2018-09-11T15:54:25.690Z,1.20
2018-09-11T15:56:53.891Z,1.53
2018-09-11T15:59:23.188Z,1.00
2018-09-11T16:01:51.496Z,1.00
2018-09-11T16:04:19.649Z,1.10
2018-09-11T16:06:47.908Z,1.20
2018-09-11T16:09:16.052Z,1.07
2018-09-11T16:11:50.849Z,1.17
2018-09-11T16:14:19.028Z,1.03
2018-09-11T16:16:47.236Z,1.17
2018-09-11T16:19:15.439Z,1.03
2018-09-11T16:21:43.579Z,1.00
2018-09-11T16:24:11.759Z,1.17
2018-09-11T16:26:39.922Z,1.30
2018-09-11T16:29:08.114Z,1.20
2018-09-11T16:31:36.272Z,1.80
2018-09-11T16:34:04.500Z,1.00
2018-09-11T16:36:32.673Z,1.23
2018-09-11T16:39:00.879Z,0.93
2018-09-11T16:41:29.028Z,1.40
2018-09-11T16:43:57.228Z,1.17
2018-09-11T16:46:25.376Z,1.30
2018-09-11T16:48:53.579Z,1.13
2018-09-11T16:51:21.752Z,1.00
2018-09-11T16:53:49.988Z,1.20
2018-09-11T16:56:18.135Z,1.00
2018-09-11T16:58:46.363Z,1.20
2018-09-11T17:01:14.541Z,1.40
2018-09-11T17:03:42.731Z,1.10
2018-09-11T17:06:10.909Z,1.30
2018-09-11T17:08:39.198Z,1.10
2018-09-11T17:11:07.344Z,1.10
2018-09-11T17:13:35.552Z,0.90
2018-09-11T17:16:03.704Z,1.20
2018-09-11T17:18:32.735Z,1.00
2018-09-11T17:21:00.938Z,1.13
2018-09-11T17:23:29.140Z,1.40
2018-09-11T17:25:57.371Z,0.90
2018-09-11T17:28:25.575Z,1.20
2018-09-11T17:30:53.715Z,1.10
2018-09-11T17:33:21.904Z,1.20
2018-09-11T17:35:50.176Z,1.20
2018-09-11T17:38:18.334Z,1.20
2018-09-11T17:40:46.494Z,1.10
2018-09-11T17:43:14.668Z,1.10
2018-09-11T17:45:42.872Z,1.10
2018-09-11T17:48:11.064Z,1.20
2018-09-11T17:50:39.309Z,1.20
2018-09-11T17:53:07.476Z,0.90
2018-09-11T17:55:35.673Z,0.90
2018-09-11T17:58:03.919Z,1.07
2018-09-11T18:00:32.091Z,1.33
2018-09-11T18:03:00.292Z,1.20
2018-09-11T18:05:28.484Z,1.20
2018-09-11T18:07:56.708Z,1.23
2018-09-11T18:10:24.881Z,1.00
2018-09-11T18:12:53.064Z,1.30
2018-09-11T18:15:21.396Z,1.70
2018-09-11T18:17:49.565Z,0.97
2018-09-11T18:20:17.775Z,1.23
2018-09-11T18:22:45.916Z,1.17
2018-09-11T18:25:14.091Z,0.90
2018-09-11T18:27:42.282Z,1.00
2018-09-11T18:30:10.523Z,1.20
2018-09-11T18:32:38.801Z,1.00
2018-09-11T18:35:07.769Z,1.20
2018-09-11T18:37:35.953Z,1.00
2018-09-11T18:40:04.163Z,1.20
2018-09-11T18:42:32.343Z,1.00
2018-09-11T18:45:00.614Z,1.07
2018-09-11T18:47:28.793Z,1.23
2018-09-11T18:49:57.092Z,0.73
2018-09-11T18:52:25.286Z,1.23
2018-09-11T18:54:53.476Z,1.30
2018-09-11T18:57:21.663Z,1.17
2018-09-11T18:59:49.921Z,1.10
2018-09-11T19:02:18.086Z,1.20
2018-09-11T19:04:46.319Z,1.17
2018-09-11T19:07:14.508Z,1.20
2018-09-11T19:09:42.682Z,1.60
2018-09-11T19:12:10.867Z,1.17
2018-09-11T19:14:39.048Z,1.10
2018-09-11T19:17:07.257Z,0.90
2018-09-11T19:19:36.102Z,1.13
2018-09-11T19:22:04.300Z,1.10
2018-09-11T19:24:32.493Z,1.10
2018-09-11T19:27:00.784Z,1.30
2018-09-11T19:29:30.149Z,1.20
2018-09-11T19:31:58.375Z,1.20
2018-09-11T19:34:26.602Z,1.00
2018-09-11T19:36:54.878Z,1.27
2018-09-11T19:39:23.064Z,0.80
2018-09-11T19:41:51.303Z,0.90
2018-09-11T19:44:19.444Z,0.90
2018-09-11T19:46:47.643Z,1.20
2018-09-11T19:49:15.872Z,1.00
2018-09-11T19:51:44.078Z,1.10
2018-09-11T19:54:12.224Z,1.10
2018-09-11T19:56:40.442Z,1.00
2018-09-11T19:59:08.618Z,0.87
2018-09-11T20:01:36.833Z,1.20
2018-09-11T20:04:05.085Z,1.30
2018-09-11T20:06:33.250Z,1.20
2018-09-11T20:09:01.496Z,1.30
2018-09-11T20:11:29.672Z,1.00
2018-09-11T20:13:57.911Z,1.20
2018-09-11T20:16:26.032Z,1.10
2018-09-11T20:18:54.260Z,1.40
2018-09-11T20:21:22.492Z,1.10
2018-09-11T20:23:50.689Z,1.07
2018-09-11T20:26:18.929Z,1.20
2018-09-11T20:28:47.103Z,1.20
2018-09-11T20:31:15.252Z,1.10
2018-09-11T20:33:43.435Z,1.37
2018-09-11T20:36:11.738Z,0.80
2018-09-11T20:38:39.888Z,1.07
2018-09-11T20:41:08.073Z,1.10
2018-09-11T20:43:36.257Z,1.10
2018-09-11T20:46:04.492Z,1.30
2018-09-11T20:48:32.668Z,1.40
2018-09-11T20:51:00.872Z,1.20
2018-09-11T20:53:29.044Z,2.27
2018-09-11T20:55:57.288Z,1.70
2018-09-11T20:58:25.458Z,2.33
2018-09-11T21:00:53.708Z,2.27
2018-09-11T21:03:21.875Z,2.30
2018-09-11T21:05:50.047Z,1.60
2018-09-11T21:08:18.236Z,1.50
2018-09-11T21:10:46.406Z,1.77
2018-09-11T21:13:14.576Z,1.30
2018-09-11T21:15:42.818Z,1.40
2018-09-11T21:18:11.041Z,1.23
2018-09-11T21:20:39.435Z,1.50
2018-09-11T21:23:07.633Z,1.50
2018-09-11T21:25:35.821Z,1.40
2018-09-11T21:28:04.111Z,1.37
2018-09-11T21:30:32.320Z,1.47
2018-09-11T21:33:00.502Z,1.20
2018-09-11T21:35:28.679Z,1.20
2018-09-11T21:37:56.855Z,1.47
2018-09-11T21:40:25.035Z,1.30
2018-09-11T21:42:53.211Z,1.27
2018-09-11T21:45:21.377Z,1.33
2018-09-11T21:47:49.549Z,1.60
2018-09-11T21:50:17.973Z,1.40
2018-09-11T21:52:46.128Z,1.60
2018-09-11T21:55:14.315Z,1.20
2018-09-11T21:57:42.490Z,2.00
2018-09-11T22:00:12.003Z,1.47
2018-09-11T22:02:40.225Z,1.23
2018-09-11T22:05:09.092Z,1.60
2018-09-11T22:07:37.272Z,1.50
2018-09-11T22:10:07.142Z,1.50
2018-09-11T22:12:35.295Z,1.37
2018-09-11T22:15:03.512Z,1.37
2018-09-11T22:17:31.731Z,1.70
2018-09-11T22:19:59.931Z,1.20
2018-09-11T22:22:28.212Z,1.50
2018-09-11T22:24:56.444Z,1.20
2018-09-11T22:27:24.566Z,1.20
2018-09-11T22:29:53.468Z,1.40
2018-09-11T22:32:21.680Z,1.53
2018-09-11T22:34:49.866Z,1.40
2018-09-11T22:37:18.124Z,1.43
2018-09-11T22:39:47.441Z,1.27
2018-09-11T22:42:15.626Z,1.70
2018-09-11T22:44:43.878Z,1.33
2018-09-11T22:47:12.059Z,1.50
2018-09-11T22:49:40.252Z,1.60
2018-09-11T22:52:08.462Z,1.60
2018-09-11T22:54:36.688Z,1.47
2018-09-11T22:57:04.955Z,1.57
2018-09-11T22:59:33.322Z,1.60
2018-09-11T23:02:01.511Z,1.40
2018-09-11T23:04:29.663Z,1.50
2018-09-11T23:06:57.874Z,1.53
2018-09-11T23:09:26.044Z,1.37
2018-09-11T23:11:54.223Z,1.27
2018-09-11T23:14:22.429Z,1.60
2018-09-11T23:16:50.688Z,1.50
2018-09-11T23:19:18.879Z,1.60
2018-09-11T23:21:47.065Z,1.13
2018-09-11T23:24:15.243Z,1.40
2018-09-11T23:26:43.428Z,1.53
2018-09-11T23:29:11.616Z,1.30
2018-09-11T23:31:39.780Z,1.77
2018-09-11T23:34:07.992Z,1.90
2018-09-11T23:36:36.775Z,1.47
2018-09-11T23:39:06.620Z,1.47
2018-09-11T23:41:34.816Z,1.73
2018-09-11T23:44:03.072Z,1.80
2018-09-11T23:46:31.247Z,1.50
2018-09-11T23:48:59.517Z,1.50
2018-09-11T23:51:27.735Z,1.60
2018-09-11T23:53:55.956Z,1.47
2018-09-11T23:56:24.156Z,1.57
2018-09-11T23:58:52.320Z,1.40
